Time;durP1;ratioP1;P1;durP2;ratioP2;P2;SDS_P1;SDS_P2;PMS_P1;PMS_P2;Temp;Humidity;BMP_temperature;BMP_pressure;BME280_temperature;BME280_humidity;BME280_pressure;Samples;Min_cycle;Max_cycle;Signal;HPM_P1;HPM_P2
2021/12/26 00:01:51;;;;;;;0.60;0.37;;;1.40;1.00;;;;;;5115310;28;20484;-75
2021/12/26 00:04:19;;;;;;;0.50;0.10;;;1.50;1.00;;;;;;5103057;28;20514;-75
2021/12/26 00:06:48;;;;;;;1.00;0.70;;;1.50;1.00;;;;;;5109595;28;20432;-76
2021/12/26 00:09:16;;;;;;;3.47;1.60;;;1.60;1.00;;;;;;5121098;28;20449;-75
2021/12/26 00:11:44;;;;;;;0.50;0.10;;;1.50;1.00;;;;;;5117921;28;20543;-76
2021/12/26 00:14:13;;;;;;;1.83;1.67;;;1.50;1.00;;;;;;5113504;28;20524;-75
2021/12/26 00:16:43;;;;;;;0.73;0.60;;;1.60;1.00;;;;;;5114129;28;20439;-77
2021/12/26 00:19:11;;;;;;;0.50;0.10;;;1.60;1.00;;;;;;5114644;28;21029;-75
2021/12/26 00:21:40;;;;;;;0.70;0.40;;;1.60;1.00;;;;;;5114265;28;20473;-75
2021/12/26 00:24:08;;;;;;;0.80;0.30;;;1.60;1.00;;;;;;5112223;28;20546;-75
2021/12/26 00:26:37;;;;;;;1.03;0.93;;;1.60;1.00;;;;;;5093214;28;20529;-75
2021/12/26 00:29:06;;;;;;;228.83;102.90;;;;;;;;;;5093493;28;20475;-75
2021/12/26 00:31:35;;;;;;;110.50;52.03;;;1.60;1.00;;;;;;5093081;28;20837;-74
2021/12/26 00:34:03;;;;;;;0.97;0.97;;;1.60;1.00;;;;;;5093873;28;20455;-75
2021/12/26 00:36:31;;;;;;;3.23;3.10;;;1.50;1.00;;;;;;5113158;28;20468;-75
2021/12/26 00:38:59;;;;;;;0.93;0.83;;;1.60;1.00;;;;;;5113735;28;20444;-75
2021/12/26 00:41:27;;;;;;;1.07;0.97;;;1.60;1.00;;;;;;5113992;28;20838;-75
2021/12/26 00:43:55;;;;;;;0.60;0.50;;;1.60;1.00;;;;;;5123095;28;20512;-75
2021/12/26 00:46:23;;;;;;;0.53;0.30;;;1.60;1.00;;;;;;5093484;28;20449;-75
2021/12/26 00:48:52;;;;;;;0.67;0.47;;;1.60;1.00;;;;;;5101672;28;20543;-75
2021/12/26 00:51:20;;;;;;;0.50;0.30;;;1.60;1.00;;;;;;5113374;28;20471;-74
2021/12/26 00:53:48;;;;;;;1.33;1.23;;;1.60;1.00;;;;;;5113988;28;20534;-74
2021/12/26 00:56:17;;;;;;;0.50;0.20;;;1.60;1.00;;;;;;5108800;28;20532;-74
2021/12/26 00:58:45;;;;;;;1.10;0.97;;;1.60;1.00;;;;;;5094488;28;20435;-75
2021/12/26 01:01:13;;;;;;;1.13;0.70;;;1.60;1.00;;;;;;5098264;28;20530;-74
2021/12/26 01:03:44;;;;;;;17.87;3.40;;;1.60;1.00;;;;;;5109204;28;20479;-74
2021/12/26 01:06:19;;;;;;;0.60;0.47;;;1.60;1.00;;;;;;5111853;28;20443;-76
2021/12/26 01:08:50;;;;;;;8.40;2.30;;;;;;;;;;5113089;28;20920;-75
2021/12/26 01:11:31;;;;;;;0.50;0.20;;;1.50;1.00;;;;;;5116161;28;20962;-74
2021/12/26 01:14:00;;;;;;;1.00;0.77;;;1.50;1.00;;;;;;5113480;28;20453;-74
2021/12/26 01:16:29;;;;;;;1.10;0.83;;;1.50;1.00;;;;;;5114520;28;20478;-75
2021/12/26 01:19:03;;;;;;;1.03;0.73;;;1.50;1.00;;;;;;5113395;28;20997;-74
2021/12/26 01:21:33;;;;;;;0.60;0.33;;;1.50;1.00;;;;;;5111210;28;20459;-76
2021/12/26 01:24:04;;;;;;;1.43;1.30;;;1.50;1.00;;;;;;5122787;28;20479;-75
2021/12/26 01:26:32;;;;;;;3.37;0.60;;;1.50;1.00;;;;;;5119267;28;20491;-75
2021/12/26 01:29:04;;;;;;;0.60;0.30;;;1.50;1.00;;;;;;5119130;28;20453;-75
2021/12/26 01:31:33;;;;;;;1.70;1.37;;;1.50;1.00;;;;;;5123912;28;20472;-75
2021/12/26 01:34:05;;;;;;;0.60;0.10;;;1.50;1.00;;;;;;5128730;28;20455;-75
2021/12/26 01:36:35;;;;;;;0.50;0.10;;;1.50;1.00;;;;;;5118809;28;20479;-76
2021/12/26 01:39:08;;;;;;;0.50;0.10;;;1.50;1.00;;;;;;5118998;28;20432;-76
2021/12/26 01:41:40;;;;;;;0.50;0.10;;;1.50;1.00;;;;;;5117433;28;20978;-76
2021/12/26 01:44:11;;;;;;;2.77;1.47;;;1.50;1.00;;;;;;5116941;28;20856;-75
2021/12/26 01:46:43;;;;;;;0.50;0.20;;;1.50;1.00;;;;;;5099996;28;20471;-76
2021/12/26 01:49:13;;;;;;;5.20;3.10;;;1.50;1.00;;;;;;5101347;28;20419;-75
2021/12/26 01:51:45;;;;;;;0.90;0.50;;;1.50;1.00;;;;;;5103297;28;20486;-75
2021/12/26 01:54:16;;;;;;;0.50;0.30;;;1.50;1.00;;;;;;5099457;28;20424;-76
2021/12/26 01:56:46;;;;;;;0.60;0.30;;;1.50;1.00;;;;;;5115137;28;20814;-74
2021/12/26 01:59:15;;;;;;;1.13;1.03;;;1.50;1.00;;;;;;5117334;28;20787;-77
2021/12/26 02:01:45;;;;;;;2.10;2.00;;;1.60;1.00;;;;;;5112299;28;20473;-75
2021/12/26 02:04:13;;;;;;;0.50;0.20;;;1.60;1.00;;;;;;5106371;28;20989;-75
2021/12/26 02:06:44;;;;;;;1.53;0.77;;;1.60;1.00;;;;;;5115318;28;20493;-76
2021/12/26 02:09:12;;;;;;;0.50;0.10;;;1.60;1.00;;;;;;5115154;28;20446;-76
2021/12/26 02:11:41;;;;;;;1.43;0.70;;;1.60;1.00;;;;;;5117645;28;20856;-76
2021/12/26 02:14:09;;;;;;;0.70;0.30;;;1.60;1.00;;;;;;5117245;28;20435;-75
2021/12/26 02:16:38;;;;;;;0.50;0.10;;;1.50;1.00;;;;;;5111587;28;20492;-75
2021/12/26 02:19:06;;;;;;;1.27;1.17;;;1.50;1.00;;;;;;5116368;28;20858;-75
2021/12/26 02:21:57;;;;;;;1.43;0.40;;;1.50;1.00;;;;;;5102346;28;20475;-75
2021/12/26 02:24:30;;;;;;;2.63;1.03;;;1.40;1.00;;;;;;5095760;28;20510;-77
2021/12/26 02:29:45;;;;;;;2.30;1.23;;;1.50;1.00;;;;;;5116527;28;20527;-74
2021/12/26 02:32:15;;;;;;;1.07;0.97;;;1.50;1.00;;;;;;5115062;28;20443;-75
2021/12/26 02:34:43;;;;;;;0.50;0.20;;;1.50;1.00;;;;;;5109420;28;20435;-76
2021/12/26 02:37:12;;;;;;;0.60;0.30;;;1.50;1.00;;;;;;5116273;28;20918;-75
2021/12/26 02:39:40;;;;;;;0.50;0.10;;;1.40;1.00;;;;;;5116600;28;20440;-74
2021/12/26 02:42:08;;;;;;;0.60;0.40;;;1.40;1.00;;;;;;5125324;28;20455;-76
2021/12/26 02:44:36;;;;;;;0.70;0.33;;;1.50;1.00;;;;;;5116537;28;20468;-75
2021/12/26 02:47:05;;;;;;;5.70;3.70;;;1.50;1.00;;;;;;5116883;28;20518;-75
2021/12/26 02:49:32;;;;;;;0.50;0.10;;;1.50;1.00;;;;;;5116450;28;20444;-77
2021/12/26 02:52:00;;;;;;;0.50;0.10;;;1.50;1.00;;;;;;5112840;28;20463;-76
2021/12/26 02:54:30;;;;;;;1.00;0.33;;;1.50;1.00;;;;;;5106843;28;20528;-74
2021/12/26 02:56:58;;;;;;;0.50;0.10;;;1.50;1.00;;;;;;5116424;28;20440;-73
2021/12/26 02:59:30;;;;;;;0.50;0.10;;;1.50;1.00;;;;;;5114940;28;20447;-75
2021/12/26 03:01:58;;;;;;;1.17;0.67;;;1.60;1.00;;;;;;5115597;28;20483;-77
2021/12/26 03:04:26;;;;;;;0.50;0.10;;;1.60;1.00;;;;;;5114405;28;20479;-75
2021/12/26 03:07:01;;;;;;;0.50;0.30;;;1.60;1.00;;;;;;5094856;28;20440;-77
2021/12/26 03:09:44;;;;;;;0.50;0.10;;;1.60;1.00;;;;;;5094716;28;20453;-75
2021/12/26 03:12:12;;;;;;;0.80;0.80;;;1.60;1.00;;;;;;5095638;28;20523;-75
2021/12/26 03:14:40;;;;;;;0.60;0.53;;;1.60;1.00;;;;;;5096673;28;20441;-77
2021/12/26 03:17:09;;;;;;;0.50;0.23;;;1.60;1.00;;;;;;5094638;28;20425;-76
2021/12/26 03:19:37;;;;;;;0.50;0.10;;;1.60;1.00;;;;;;5095246;28;20476;-75
2021/12/26 03:22:08;;;;;;;1.17;0.83;;;1.60;1.00;;;;;;5097047;28;20473;-76
2021/12/26 03:24:39;;;;;;;0.50;0.10;;;;;;;;;;5096369;28;20481;-75
2021/12/26 03:27:07;;;;;;;4.30;3.97;;;1.60;1.00;;;;;;5115936;28;20460;-75
2021/12/26 03:29:36;;;;;;;0.67;0.37;;;1.50;1.00;;;;;;5119424;28;20444;-75
2021/12/26 03:32:05;;;;;;;0.60;0.27;;;1.50;1.00;;;;;;5114491;28;20461;-75
2021/12/26 03:34:32;;;;;;;2.53;1.13;;;1.50;1.00;;;;;;5113159;28;20976;-75
2021/12/26 03:37:01;;;;;;;0.50;0.20;;;1.50;1.00;;;;;;5114605;28;20452;-76
2021/12/26 03:39:28;;;;;;;0.50;0.20;;;1.50;1.00;;;;;;5114280;28;20440;-75
2021/12/26 03:41:58;;;;;;;0.50;0.20;;;1.40;1.00;;;;;;5114386;28;20508;-75
2021/12/26 03:44:26;;;;;;;4.20;0.47;;;1.40;1.00;;;;;;5114015;28;20475;-75
2021/12/26 03:46:54;;;;;;;0.50;0.10;;;1.40;1.00;;;;;;5113469;28;20444;-75
2021/12/26 03:49:26;;;;;;;0.60;0.33;;;1.40;1.00;;;;;;5114525;28;20444;-75
2021/12/26 03:51:54;;;;;;;0.60;0.20;;;1.40;1.00;;;;;;5115303;28;20557;-75
2021/12/26 03:54:22;;;;;;;6.43;2.20;;;1.40;1.00;;;;;;5122767;28;20451;-75
2021/12/26 03:56:50;;;;;;;1.43;1.20;;;1.40;1.00;;;;;;5105908;28;20453;-75
2021/12/26 03:59:19;;;;;;;0.50;0.10;;;1.40;1.00;;;;;;5094290;28;20480;-75
2021/12/26 04:01:47;;;;;;;0.60;0.30;;;1.40;1.00;;;;;;5093592;28;20491;-75
2021/12/26 04:04:15;;;;;;;0.50;0.20;;;1.40;1.00;;;;;;5093588;28;20575;-76
2021/12/26 04:06:44;;;;;;;1.07;1.07;;;1.40;1.00;;;;;;5095383;28;20447;-75
2021/12/26 04:09:13;;;;;;;1.23;1.00;;;1.40;1.00;;;;;;5114026;28;20443;-76
2021/12/26 04:11:44;;;;;;;0.60;0.43;;;1.40;1.00;;;;;;5114102;28;20471;-76
2021/12/26 04:14:13;;;;;;;0.50;0.10;;;1.40;1.00;;;;;;5113312;28;20482;-74
2021/12/26 04:16:44;;;;;;;2.60;2.40;;;1.40;1.00;;;;;;5113328;28;20440;-76
2021/12/26 04:19:12;;;;;;;0.50;0.10;;;1.40;1.00;;;;;;5114117;28;20438;-75
2021/12/26 04:21:40;;;;;;;1.20;0.53;;;1.40;1.00;;;;;;5107804;28;20479;-75
2021/12/26 04:24:09;;;;;;;1.17;1.10;;;1.40;1.00;;;;;;5094995;28;20481;-75
2021/12/26 04:26:39;;;;;;;0.50;0.10;;;1.30;1.00;;;;;;5097534;28;20437;-75
2021/12/26 04:29:07;;;;;;;0.50;0.20;;;1.30;1.00;;;;;;5099079;28;20444;-75
2021/12/26 04:31:35;;;;;;;0.70;0.60;;;1.40;1.00;;;;;;5094959;28;20826;-75
2021/12/26 04:34:05;;;;;;;0.50;0.10;;;1.50;1.00;;;;;;5093688;28;20437;-76
2021/12/26 04:36:33;;;;;;;2.50;2.00;;;1.50;1.00;;;;;;5098443;28;20506;-75
2021/12/26 04:39:03;;;;;;;0.50;0.10;;;1.50;1.00;;;;;;5109194;28;20448;-77
2021/12/26 04:41:31;;;;;;;0.60;0.37;;;1.60;1.00;;;;;;5113665;28;20990;-76
2021/12/26 04:44:04;;;;;;;0.50;0.20;;;1.60;1.00;;;;;;5113694;28;20450;-76
2021/12/26 04:47:06;;;;;;;0.50;0.20;;;;;;;;;;5114955;28;20427;-78
2021/12/26 04:49:38;;;;;;;0.50;0.10;;;;;;;;;;5112694;28;20450;-77
2021/12/26 04:52:10;;;;;;;2.03;1.60;;;1.60;1.00;;;;;;5114626;28;21044;-76
2021/12/26 04:54:39;;;;;;;0.50;0.10;;;1.50;1.00;;;;;;5113910;28;20436;-75
2021/12/26 04:57:08;;;;;;;0.50;0.20;;;1.60;1.00;;;;;;5115160;28;20450;-75
2021/12/26 04:59:36;;;;;;;0.50;0.20;;;1.50;1.00;;;;;;5115056;28;20443;-75
2021/12/26 05:02:07;;;;;;;1.20;0.97;;;1.60;1.00;;;;;;5117622;28;20567;-75
2021/12/26 05:04:37;;;;;;;5.63;2.03;;;1.70;1.00;;;;;;5109736;28;20486;-75
2021/12/26 05:07:07;;;;;;;0.50;0.20;;;1.60;1.00;;;;;;5103073;28;20437;-75
2021/12/26 05:09:35;;;;;;;3.20;3.00;;;1.60;1.00;;;;;;5104604;28;20524;-75
2021/12/26 05:12:03;;;;;;;0.50;0.10;;;1.60;1.00;;;;;;5100709;28;20449;-76
2021/12/26 05:14:31;;;;;;;0.50;0.10;;;1.50;1.00;;;;;;5094805;28;20440;-76
2021/12/26 05:16:59;;;;;;;0.50;0.10;;;1.50;1.00;;;;;;5094170;28;20484;-76
2021/12/26 05:19:26;;;;;;;2.30;0.43;;;1.60;1.00;;;;;;5092814;28;20425;-76
2021/12/26 05:21:56;;;;;;;1.40;1.27;;;;;;;;;;5112076;28;20459;-76
2021/12/26 05:24:24;;;;;;;0.60;0.50;;;1.50;1.00;;;;;;5112045;28;20486;-76
2021/12/26 05:26:52;;;;;;;0.50;0.20;;;1.50;1.00;;;;;;5107872;28;20443;-76
2021/12/26 05:29:20;;;;;;;0.50;0.10;;;1.50;1.00;;;;;;5113552;28;20438;-75
2021/12/26 05:31:48;;;;;;;0.60;0.40;;;1.50;1.00;;;;;;5112288;28;20652;-75
2021/12/26 05:34:16;;;;;;;1.90;1.10;;;1.40;1.00;;;;;;5112724;28;20454;-75
2021/12/26 05:36:44;;;;;;;0.53;0.30;;;1.40;1.00;;;;;;5112809;28;20432;-76
2021/12/26 05:39:14;;;;;;;2.70;1.17;;;1.40;1.00;;;;;;5112332;28;20537;-75
2021/12/26 05:41:42;;;;;;;0.60;0.10;;;1.40;1.00;;;;;;5114584;28;20495;-76
2021/12/26 05:44:10;;;;;;;2.93;2.40;;;1.40;1.00;;;;;;5114728;28;20889;-77
2021/12/26 05:46:38;;;;;;;0.70;0.70;;;1.40;1.00;;;;;;5113492;28;21005;-75
2021/12/26 05:49:06;;;;;;;1.27;0.67;;;1.50;1.00;;;;;;5113204;28;20446;-75
2021/12/26 05:51:36;;;;;;;2.83;0.93;;;1.50;1.00;;;;;;5113359;28;20468;-75
2021/12/26 05:54:04;;;;;;;0.50;0.20;;;1.40;1.00;;;;;;5093481;28;20954;-76
2021/12/26 05:56:33;;;;;;;0.50;0.10;;;1.40;1.00;;;;;;5095394;28;20448;-75
2021/12/26 05:59:01;;;;;;;14.23;5.63;;;1.30;1.00;;;;;;5096914;28;20456;-75
2021/12/26 06:01:29;;;;;;;4.60;0.93;;;1.40;1.00;;;;;;5096542;28;20539;-76
2021/12/26 06:03:57;;;;;;;0.87;0.87;;;1.40;1.00;;;;;;5096349;28;20448;-76
2021/12/26 06:06:25;;;;;;;0.50;0.10;;;1.40;1.00;;;;;;5096138;28;20507;-77
2021/12/26 06:08:53;;;;;;;0.50;0.10;;;1.40;1.00;;;;;;5097084;28;20446;-75
2021/12/26 06:11:21;;;;;;;0.50;0.10;;;1.40;1.00;;;;;;5096505;28;20466;-77
2021/12/26 06:13:50;;;;;;;1.47;1.17;;;1.40;1.00;;;;;;5096443;28;20445;-77
2021/12/26 06:16:20;;;;;;;1.13;0.97;;;1.40;1.00;;;;;;5099329;28;20870;-75
2021/12/26 06:18:48;;;;;;;0.50;0.10;;;1.50;1.00;;;;;;5106860;28;20862;-76
2021/12/26 06:21:18;;;;;;;0.60;0.47;;;1.50;1.00;;;;;;5108017;28;20908;-75
2021/12/26 06:23:50;;;;;;;0.50;0.10;;;1.50;1.00;;;;;;5102077;28;20467;-77
2021/12/26 06:26:18;;;;;;;0.50;0.10;;;1.50;1.00;;;;;;5097775;28;20472;-77
2021/12/26 06:28:46;;;;;;;1.33;1.23;;;1.50;1.00;;;;;;5096711;28;20441;-76
2021/12/26 06:31:16;;;;;;;0.73;0.63;;;1.50;1.00;;;;;;5096264;28;20467;-77
2021/12/26 06:33:44;;;;;;;1.33;0.70;;;1.40;1.00;;;;;;5096032;28;20808;-76
2021/12/26 06:36:13;;;;;;;0.70;0.30;;;1.40;1.00;;;;;;5096705;28;20535;-77
2021/12/26 06:38:42;;;;;;;0.50;0.10;;;1.50;1.00;;;;;;5096300;28;20528;-76
2021/12/26 06:41:12;;;;;;;0.83;0.60;;;1.50;1.00;;;;;;5097207;28;20464;-76
2021/12/26 06:43:41;;;;;;;0.50;0.10;;;1.50;1.00;;;;;;5114285;28;20543;-76
2021/12/26 06:46:09;;;;;;;1.20;1.17;;;1.50;1.00;;;;;;5117247;28;20838;-76
2021/12/26 06:48:41;;;;;;;0.50;0.10;;;1.50;1.00;;;;;;5124713;28;20439;-75
2021/12/26 06:51:09;;;;;;;0.60;0.30;;;1.50;1.00;;;;;;5118071;28;20459;-75
2021/12/26 06:53:37;;;;;;;0.50;0.10;;;1.50;1.00;;;;;;5116825;28;20509;-75
2021/12/26 06:56:06;;;;;;;0.50;0.20;;;1.50;1.00;;;;;;5116052;28;20519;-76
2021/12/26 06:58:34;;;;;;;2.30;2.20;;;1.50;1.00;;;;;;5113257;28;20457;-77
2021/12/26 07:01:02;;;;;;;1.13;1.03;;;;;;;;;;5096227;28;20975;-76
2021/12/26 07:03:31;;;;;;;0.50;0.10;;;1.40;1.00;;;;;;5096126;28;20469;-77
2021/12/26 07:06:00;;;;;;;0.67;0.53;;;1.40;1.00;;;;;;5095089;28;20480;-77
2021/12/26 07:08:28;;;;;;;0.50;0.10;;;1.40;1.00;;;;;;5095489;28;20449;-77
2021/12/26 07:10:56;;;;;;;1.60;1.50;;;1.40;1.00;;;;;;5095369;28;20480;-76
2021/12/26 07:13:24;;;;;;;0.50;0.20;;;3.20;1.00;;;;;;5097199;28;20448;-76
2021/12/26 07:15:52;;;;;;;0.60;0.40;;;1.40;1.00;;;;;;5114633;28;20449;-76
2021/12/26 07:18:20;;;;;;;0.50;0.20;;;1.40;1.00;;;;;;5116568;28;20486;-76
2021/12/26 07:20:49;;;;;;;0.60;0.37;;;1.40;1.00;;;;;;5117035;28;20865;-77
2021/12/26 07:23:18;;;;;;;2.67;1.80;;;1.40;1.00;;;;;;5112396;28;20467;-76
2021/12/26 07:25:46;;;;;;;0.50;0.10;;;1.40;1.00;;;;;;5116889;28;20468;-77
2021/12/26 07:28:14;;;;;;;3.13;2.93;;;1.40;1.00;;;;;;5116902;28;20439;-77
2021/12/26 07:30:42;;;;;;;0.50;0.10;;;1.30;1.00;;;;;;5106889;28;20472;-74
2021/12/26 07:33:10;;;;;;;1.43;1.33;;;1.30;1.00;;;;;;5109286;28;20455;-75
2021/12/26 07:35:37;;;;;;;1.23;0.57;;;1.30;1.00;;;;;;5113466;28;20456;-77
2021/12/26 07:38:05;;;;;;;0.50;0.20;;;1.30;1.00;;;;;;5116103;28;20452;-75
2021/12/26 07:40:35;;;;;;;6.60;4.13;;;1.20;1.00;;;;;;5114633;28;20767;-76
2021/12/26 07:43:05;;;;;;;0.50;0.20;;;1.20;1.00;;;;;;5116867;28;20440;-75
2021/12/26 07:45:33;;;;;;;0.50;0.10;;;1.30;1.00;;;;;;5114563;28;20535;-76
2021/12/26 07:48:01;;;;;;;0.50;0.20;;;1.30;1.00;;;;;;5114259;28;20452;-76
2021/12/26 07:50:29;;;;;;;0.50;0.10;;;1.30;1.00;;;;;;5114231;28;20834;-76
2021/12/26 07:53:02;;;;;;;0.50;0.33;;;1.40;1.00;;;;;;5115381;28;20457;-77
2021/12/26 07:55:31;;;;;;;0.60;0.50;;;1.40;1.00;;;;;;5116285;28;20428;-76
2021/12/26 07:58:01;;;;;;;0.50;0.10;;;1.40;1.00;;;;;;5114272;28;20447;-76
2021/12/26 08:00:29;;;;;;;0.87;0.40;;;1.40;1.00;;;;;;5115831;28;20464;-76
2021/12/26 08:02:58;;;;;;;0.50;0.30;;;1.40;1.00;;;;;;5114943;28;20779;-76
2021/12/26 08:05:26;;;;;;;0.93;0.60;;;1.40;1.00;;;;;;5114929;28;20458;-76
2021/12/26 08:07:54;;;;;;;0.50;0.30;;;1.50;1.00;;;;;;5115161;28;20460;-77
2021/12/26 08:10:23;;;;;;;0.50;0.10;;;;;;;;;;5102589;28;20464;-76
2021/12/26 08:12:51;;;;;;;0.70;0.50;;;1.50;1.00;;;;;;5094862;28;20948;-76
2021/12/26 08:15:21;;;;;;;64.00;33.93;;;1.50;1.00;;;;;;5101111;28;20541;-77
2021/12/26 08:17:49;;;;;;;7.90;6.70;;;1.50;1.00;;;;;;5096085;28;20437;-77
2021/12/26 08:20:21;;;;;;;0.50;0.10;;;1.50;1.00;;;;;;5097318;28;20507;-77
2021/12/26 08:22:49;;;;;;;1.77;1.57;;;1.50;1.00;;;;;;5095802;28;20453;-77
2021/12/26 08:25:18;;;;;;;0.60;0.30;;;1.60;1.00;;;;;;5099281;28;20479;-77
2021/12/26 08:27:45;;;;;;;2.00;1.90;;;1.60;1.00;;;;;;5119106;28;20498;-77
2021/12/26 08:30:14;;;;;;;0.50;0.10;;;1.60;1.00;;;;;;5116509;28;20460;-77
2021/12/26 08:32:44;;;;;;;0.50;0.10;;;1.60;1.00;;;;;;5113937;28;20451;-77
2021/12/26 08:35:12;;;;;;;0.53;0.27;;;1.70;1.00;;;;;;5113676;28;20448;-77
2021/12/26 08:37:41;;;;;;;0.50;0.10;;;1.70;1.00;;;;;;5114594;28;20450;-77
2021/12/26 08:40:10;;;;;;;0.50;0.10;;;1.70;1.00;;;;;;5105231;28;20495;-77
2021/12/26 08:42:38;;;;;;;0.50;0.20;;;1.70;1.00;;;;;;5102095;28;20453;-77
2021/12/26 08:45:07;;;;;;;0.50;0.20;;;1.70;1.00;;;;;;5103261;28;20814;-77
2021/12/26 08:47:35;;;;;;;0.50;0.20;;;1.70;1.00;;;;;;5095540;28;20484;-77
2021/12/26 08:50:06;;;;;;;0.50;0.10;;;1.70;1.00;;;;;;5094346;28;20457;-77
2021/12/26 08:52:34;;;;;;;6.43;1.53;;;1.70;1.00;;;;;;5093317;28;20464;-77
2021/12/26 08:55:02;;;;;;;0.50;0.10;;;1.80;1.00;;;;;;5095259;28;20429;-77
2021/12/26 08:57:32;;;;;;;0.50;0.10;;;1.80;1.00;;;;;;5107465;28;20452;-77
2021/12/26 09:00:00;;;;;;;0.50;0.10;;;1.80;1.00;;;;;;5110479;28;20964;-76
2021/12/26 09:02:28;;;;;;;0.50;0.10;;;1.80;1.00;;;;;;5097916;28;20456;-77
2021/12/26 09:04:56;;;;;;;6.43;6.00;;;1.90;1.00;;;;;;5103914;28;20459;-75
2021/12/26 09:07:25;;;;;;;0.70;0.70;;;1.90;1.00;;;;;;5111971;28;20472;-75
2021/12/26 09:09:53;;;;;;;0.50;0.10;;;1.90;1.00;;;;;;5113280;28;20432;-76
2021/12/26 09:12:21;;;;;;;0.50;0.10;;;1.90;1.00;;;;;;5113035;28;20448;-76
2021/12/26 09:14:49;;;;;;;0.50;0.10;;;1.90;1.00;;;;;;5106250;28;20806;-76
2021/12/26 09:17:17;;;;;;;0.50;0.10;;;1.90;1.00;;;;;;5113052;28;20448;-75
2021/12/26 09:19:45;;;;;;;0.50;0.10;;;1.90;1.00;;;;;;5114840;28;20922;-76
2021/12/26 09:22:15;;;;;;;0.60;0.40;;;1.90;1.00;;;;;;5113948;28;20517;-77
2021/12/26 09:24:45;;;;;;;0.80;0.50;;;1.50;1.00;;;;;;5115997;28;21015;-74
2021/12/26 09:27:14;;;;;;;0.50;0.10;;;1.90;1.00;;;;;;5111669;28;20479;-77
2021/12/26 09:29:42;;;;;;;0.50;0.10;;;1.90;1.00;;;;;;5110179;28;20458;-78
2021/12/26 09:32:10;;;;;;;0.50;0.10;;;1.90;1.00;;;;;;5119943;28;20448;-77
2021/12/26 09:34:39;;;;;;;0.50;0.10;;;1.90;1.00;;;;;;5117011;28;20531;-76
2021/12/26 09:37:09;;;;;;;0.50;0.20;;;2.00;1.00;;;;;;5117854;28;20806;-75
2021/12/26 09:39:38;;;;;;;9.50;1.77;;;2.00;1.00;;;;;;5118146;28;20479;-76
2021/12/26 09:42:09;;;;;;;0.80;0.60;;;2.00;1.00;;;;;;5117309;28;20974;-77
2021/12/26 09:44:38;;;;;;;0.63;0.30;;;2.00;1.00;;;;;;5117231;28;20478;-76
2021/12/26 09:47:08;;;;;;;0.50;0.10;;;2.00;1.00;;;;;;5115949;28;20564;-75
2021/12/26 09:49:36;;;;;;;1.80;1.13;;;2.00;1.00;;;;;;5116806;28;20457;-74
2021/12/26 09:52:05;;;;;;;1.20;0.70;;;2.10;1.00;;;;;;5121045;28;20507;-74
2021/12/26 09:54:34;;;;;;;0.70;0.57;;;2.10;1.00;;;;;;5119868;28;20460;-74
2021/12/26 09:57:03;;;;;;;0.60;0.27;;;2.10;1.00;;;;;;5102189;28;20546;-75
2021/12/26 09:59:32;;;;;;;1.23;1.13;;;2.00;1.00;;;;;;5097054;28;20437;-75
2021/12/26 10:02:10;;;;;;;3.17;2.90;;;2.00;1.00;;;;;;5096351;28;20547;-74
2021/12/26 10:04:52;;;;;;;0.60;0.43;;;2.10;1.00;;;;;;5097305;28;20451;-76
2021/12/26 10:07:23;;;;;;;0.67;0.40;;;2.10;1.00;;;;;;5102673;28;20832;-76
2021/12/26 10:09:53;;;;;;;0.60;0.60;;;2.10;1.00;;;;;;5097941;28;20468;-74
2021/12/26 10:12:22;;;;;;;0.50;0.10;;;2.10;1.00;;;;;;5098941;28;20455;-76
2021/12/26 10:14:54;;;;;;;0.50;0.10;;;2.10;1.00;;;;;;5097471;28;20429;-76
2021/12/26 10:17:26;;;;;;;1.90;1.80;;;2.10;1.00;;;;;;5096424;28;20473;-75
2021/12/26 10:20:02;;;;;;;0.50;0.10;;;2.20;1.00;;;;;;5098624;28;20421;-77
2021/12/26 10:22:30;;;;;;;0.50;0.10;;;2.20;1.00;;;;;;5097172;28;20642;-75
2021/12/26 10:24:58;;;;;;;1.33;1.10;;;2.20;1.00;;;;;;5096838;28;20483;-76
2021/12/26 10:27:31;;;;;;;0.50;0.23;;;2.20;1.00;;;;;;5095820;28;20559;-77
2021/12/26 10:30:01;;;;;;;0.50;0.20;;;2.10;1.00;;;;;;5098507;28;20433;-76
2021/12/26 10:32:32;;;;;;;0.50;0.10;;;2.20;1.00;;;;;;5098459;28;20453;-76
2021/12/26 10:35:02;;;;;;;0.50;0.10;;;2.10;1.00;;;;;;5096554;28;20484;-76
2021/12/26 10:37:37;;;;;;;1.47;0.70;;;2.10;1.00;;;;;;5096923;28;20464;-77
2021/12/26 10:40:11;;;;;;;0.50;0.10;;;2.20;1.00;;;;;;5108801;28;20443;-76
2021/12/26 10:42:44;;;;;;;0.50;0.10;;;2.30;1.00;;;;;;5117373;28;20463;-77
2021/12/26 10:45:17;;;;;;;0.50;0.10;;;2.30;1.00;;;;;;5116565;28;20517;-75
2021/12/26 10:47:49;;;;;;;0.50;0.10;;;2.30;1.00;;;;;;5116810;28;20493;-74
2021/12/26 10:50:20;;;;;;;0.50;0.10;;;2.40;1.00;;;;;;5116462;28;20471;-75
2021/12/26 10:52:51;;;;;;;1.73;1.67;;;2.40;1.00;;;;;;5116811;28;20458;-75
2021/12/26 10:55:29;;;;;;;0.50;0.20;;;2.40;1.00;;;;;;5096878;28;20502;-76
2021/12/26 10:58:00;;;;;;;1.17;1.10;;;2.40;1.00;;;;;;5095640;28;20844;-74
2021/12/26 11:00:32;;;;;;;1.63;1.53;;;2.40;1.00;;;;;;5097000;28;20457;-77
2021/12/26 11:03:04;;;;;;;2.50;1.90;;;2.50;1.00;;;;;;5097403;28;20814;-76
2021/12/26 11:05:35;;;;;;;1.33;1.23;;;2.50;1.00;;;;;;5095454;28;20436;-76
2021/12/26 11:08:05;;;;;;;0.60;0.10;;;2.80;1.00;;;;;;5104528;28;20518;-75
2021/12/26 11:10:35;;;;;;;0.50;0.10;;;2.80;1.00;;;;;;5118354;28;20956;-74
2021/12/26 11:13:08;;;;;;;0.50;0.10;;;2.80;1.00;;;;;;5121268;28;20491;-77
2021/12/26 11:15:40;;;;;;;0.60;0.30;;;2.80;1.00;;;;;;5118652;28;20504;-76
2021/12/26 11:18:10;;;;;;;1.80;1.27;;;;;;;;;;5118181;28;20432;-77
2021/12/26 11:20:39;;;;;;;3.07;2.97;;;2.60;1.00;;;;;;5118019;28;20535;-75
2021/12/26 11:23:10;;;;;;;0.50;0.20;;;2.60;1.00;;;;;;5116060;28;20451;-74
2021/12/26 11:25:41;;;;;;;0.50;0.10;;;2.60;1.00;;;;;;5115357;28;20524;-74
2021/12/26 11:28:10;;;;;;;0.50;0.10;;;2.60;1.00;;;;;;5115418;28;20474;-76
2021/12/26 11:30:40;;;;;;;1.13;1.07;;;;;;;;;;5112110;28;20477;-76
2021/12/26 11:33:09;;;;;;;0.60;0.50;;;2.60;1.00;;;;;;5113000;28;20487;-74
2021/12/26 11:35:39;;;;;;;1.10;1.00;;;2.70;1.00;;;;;;5119324;28;20516;-76
2021/12/26 11:38:15;;;;;;;0.50;0.10;;;3.40;1.00;;;;;;5116767;28;20486;-76
2021/12/26 11:40:47;;;;;;;0.50;0.10;;;2.70;1.00;;;;;;5116553;28;20952;-76
2021/12/26 11:43:53;;;;;;;2.43;1.70;;;2.20;1.00;;;;;;5106070;28;20890;-75
2021/12/26 11:46:34;;;;;;;0.50;0.10;;;2.60;1.00;;;;;;5104308;28;20449;-75
2021/12/26 11:49:21;;;;;;;0.50;0.20;;;2.50;1.00;;;;;;5113204;28;20499;-77
2021/12/26 11:52:02;;;;;;;1.43;0.90;;;2.50;1.00;;;;;;5115611;28;20482;-75
2021/12/26 11:55:12;;;;;;;2.20;1.37;;;2.50;1.00;;;;;;5114093;28;20440;-75
2021/12/26 11:58:09;;;;;;;0.70;0.47;;;2.50;1.00;;;;;;5124336;28;20439;-74
2021/12/26 12:00:56;;;;;;;0.50;0.20;;;2.50;1.00;;;;;;5101177;28;20473;-76
2021/12/26 12:03:30;;;;;;;0.93;0.93;;;2.50;1.00;;;;;;5119549;28;20428;-77
2021/12/26 12:06:02;;;;;;;0.50;0.10;;;2.50;1.00;;;;;;5111249;28;20464;-77
2021/12/26 12:08:34;;;;;;;0.70;0.37;;;2.60;1.00;;;;;;5107526;28;21049;-76
2021/12/26 12:11:06;;;;;;;0.50;0.10;;;2.50;1.00;;;;;;5115621;28;20455;-76
2021/12/26 12:13:51;;;;;;;0.50;0.10;;;2.50;1.00;;;;;;5116170;28;20479;-75
2021/12/26 12:16:33;;;;;;;0.80;0.63;;;2.50;1.00;;;;;;5113947;28;20511;-76
2021/12/26 12:19:05;;;;;;;1.20;1.03;;;;;;;;;;5115800;28;20896;-76
2021/12/26 12:21:43;;;;;;;0.60;0.30;;;2.60;1.00;;;;;;5115512;28;20454;-76
2021/12/26 12:24:14;;;;;;;0.50;0.10;;;2.50;1.00;;;;;;5109325;28;20498;-77
2021/12/26 12:26:56;;;;;;;1.53;1.07;;;2.60;1.00;;;;;;5106127;28;20490;-76
2021/12/26 12:29:47;;;;;;;0.50;0.27;;;2.60;1.00;;;;;;5114231;28;20475;-75
2021/12/26 12:32:21;;;;;;;1.40;1.10;;;2.60;1.00;;;;;;5114589;28;20445;-74
2021/12/26 12:35:01;;;;;;;0.50;0.20;;;2.60;1.00;;;;;;5115116;28;20864;-76
2021/12/26 12:37:33;;;;;;;0.70;0.53;;;2.60;1.00;;;;;;5116187;28;20444;-76
2021/12/26 12:40:17;;;;;;;0.50;0.20;;;2.60;1.00;;;;;;5115767;28;20779;-76
2021/12/26 12:43:00;;;;;;;0.50;0.10;;;2.70;1.00;;;;;;5112433;28;20451;-77
2021/12/26 12:45:29;;;;;;;0.50;0.20;;;2.80;1.00;;;;;;5112699;28;20448;-74
2021/12/26 12:48:22;;;;;;;0.60;0.10;;;2.80;1.00;;;;;;5112903;28;20444;-76
2021/12/26 12:50:53;;;;;;;0.50;0.20;;;2.80;1.00;;;;;;5097973;28;20465;-75
2021/12/26 12:53:50;;;;;;;0.50;0.10;;;2.80;1.00;;;;;;5111268;28;20562;-74
2021/12/26 12:56:55;;;;;;;;;;;;;;;;;;;;;
2021/12/26 12:59:45;;;;;;;0.50;0.30;;;2.90;1.00;;;;;;5111863;28;20495;-75
2021/12/26 13:02:37;;;;;;;0.50;0.10;;;2.90;1.00;;;;;;5118154;28;20525;-75
2021/12/26 13:05:06;;;;;;;0.60;0.57;;;2.90;1.00;;;;;;5111532;28;20456;-75
2021/12/26 13:07:37;;;;;;;0.50;0.10;;;2.90;1.00;;;;;;5106107;28;20451;-79
2021/12/26 13:10:12;;;;;;;0.50;0.10;;;2.90;1.00;;;;;;5102796;28;20471;-76
2021/12/26 13:12:40;;;;;;;0.50;0.10;;;3.00;1.00;;;;;;5108268;28;20462;-74
2021/12/26 13:15:09;;;;;;;0.50;0.10;;;3.00;1.00;;;;;;5114692;28;20811;-75
2021/12/26 13:17:41;;;;;;;0.50;0.10;;;3.00;1.00;;;;;;5112970;28;20440;-78
2021/12/26 13:20:11;;;;;;;0.60;0.53;;;3.20;1.00;;;;;;5107376;28;20453;-69
2021/12/26 13:22:44;;;;;;;0.80;0.67;;;3.20;1.00;;;;;;5092865;28;20819;-78
2021/12/26 13:25:15;;;;;;;0.50;0.10;;;3.80;1.00;;;;;;5096913;28;20430;-77
2021/12/26 13:27:44;;;;;;;0.50;0.20;;;4.00;1.00;;;;;;5097641;28;20430;-76
2021/12/26 13:30:12;;;;;;;0.50;0.10;;;3.90;1.00;;;;;;5095717;28;20577;-74
2021/12/26 13:32:41;;;;;;;0.83;0.83;;;3.80;1.00;;;;;;5097622;28;20453;-76